KMKT/MKT METAR and TAF weather

Enter ICAO airport designator
Station Type Date Time Source
KMKT METAR 2022/01/29 09:56 UTC NOAA

KMKT 290956Z AUTO 16008KT 10SM CLR M12/M16 A3005 RMK AO2 SLP200 T11171156 FZRANO


Station Type Date Time Source
KMKT Decoded METAR 2022/01/29 09:56 UTC NOAA

Mankato, Mankato Regional Airport, MN, United States (KMKT) 44-13N 093-55W
Jan 29, 2022 - 04:56 AM EST / 2022.01.29 0956 UTC
Wind: from the SSE (160 degrees) at 9 MPH (8 KT):0
Visibility: 10 mile(s):0
Sky conditions: clear
Temperature: 10.9 F (-11.7 C)
Windchill: -2 F (-19 C):1
Dew Point: 3.9 F (-15.6 C)
Relative Humidity: 72%
Pressure (altimeter): 30.05 in. Hg (1017 hPa)
ob: KMKT 290956Z AUTO 16008KT 10SM CLR M12/M16 A3005 RMK AO2 SLP200 T11171156 FZRANO
cycle: 10

Station Type Date Time Source
KMKT TAF 2022/01/29 06:21 UTC NOAA

TAF KMKT 290520Z 2906/3006 17006KT P6SM BKN200
FM291700 20011KT P6SM SCT250
FM291800 23012G21KT P6SM SCT250
FM292000 28013G20KT P6SM SCT250
FM292300 30010KT P6SM SCT250

Example: see airport list